createdAt,value
2024-01-16T00:00:51.435Z,93793.00
2024-01-16T00:01:51.364Z,93794.00
2024-01-16T00:02:51.423Z,93790.00
2024-01-16T00:03:51.433Z,93792.00
2024-01-16T00:04:51.372Z,93792.00
2024-01-16T00:05:51.450Z,93795.00
2024-01-16T00:06:51.442Z,93796.00
2024-01-16T00:07:51.468Z,93798.00
2024-01-16T00:08:51.399Z,93795.00
2024-01-16T00:09:51.394Z,93795.00
2024-01-16T00:10:51.429Z,93790.00
2024-01-16T00:11:51.481Z,93790.00
2024-01-16T00:12:51.415Z,93790.00
2024-01-16T00:13:51.400Z,93795.00
2024-01-16T00:14:51.468Z,93799.00
2024-01-16T00:15:51.389Z,93802.00
2024-01-16T00:16:51.402Z,93801.00
2024-01-16T00:17:51.527Z,93798.00
2024-01-16T00:18:51.512Z,93795.00
2024-01-16T00:19:51.398Z,93794.00
2024-01-16T00:20:51.474Z,93796.00
2024-01-16T00:21:51.396Z,93797.00
2024-01-16T00:22:51.426Z,93802.00
2024-01-16T00:23:51.439Z,93804.00
2024-01-16T00:24:51.414Z,93805.00
2024-01-16T00:25:51.418Z,93805.00
2024-01-16T00:26:51.465Z,93807.00
2024-01-16T00:27:51.477Z,93811.00
2024-01-16T00:28:51.418Z,93810.00
2024-01-16T00:29:51.493Z,93810.00
2024-01-16T00:30:52.274Z,93809.00
2024-01-16T00:31:51.416Z,93810.00
2024-01-16T00:32:51.668Z,93812.00
2024-01-16T00:33:52.461Z,93816.00
2024-01-16T00:34:51.428Z,93815.00
2024-01-16T00:35:51.464Z,93816.00
2024-01-16T00:36:51.450Z,93817.00
2024-01-16T00:37:51.443Z,93815.00
2024-01-16T00:38:51.642Z,93816.00
2024-01-16T00:39:51.567Z,93812.00
2024-01-16T00:40:51.587Z,93813.00
2024-01-16T00:41:51.594Z,93816.00
2024-01-16T00:42:51.547Z,93817.00
2024-01-16T00:43:51.462Z,93817.00
2024-01-16T00:44:51.639Z,93818.00
2024-01-16T00:45:51.523Z,93821.00
2024-01-16T00:46:51.476Z,93825.00
2024-01-16T00:47:51.643Z,93822.00
2024-01-16T00:48:51.505Z,93826.00
2024-01-16T00:49:51.472Z,93829.00
2024-01-16T00:50:51.521Z,93832.00
2024-01-16T00:51:51.576Z,93833.00
2024-01-16T00:52:51.481Z,93833.00
2024-01-16T00:53:51.513Z,93836.00
2024-01-16T00:54:51.537Z,93834.00
2024-01-16T00:55:51.491Z,93831.00
2024-01-16T00:56:51.698Z,93831.00
2024-01-16T00:57:52.224Z,93828.00
2024-01-16T00:58:51.491Z,93831.00
2024-01-16T00:59:51.550Z,93837.00
2024-01-16T01:00:51.513Z,93840.00
2024-01-16T01:01:51.469Z,93842.00
2024-01-16T01:02:51.584Z,93842.00
2024-01-16T01:03:51.560Z,93845.00
2024-01-16T01:04:51.584Z,93846.00
2024-01-16T01:05:51.689Z,93850.00
2024-01-16T01:06:51.497Z,93852.00
2024-01-16T01:07:51.493Z,93854.00
2024-01-16T01:08:51.590Z,93853.00
2024-01-16T01:09:51.499Z,93854.00
2024-01-16T01:10:51.563Z,93853.00
2024-01-16T01:11:51.645Z,93851.00
2024-01-16T01:12:51.541Z,93853.00
2024-01-16T01:13:51.539Z,93857.00
2024-01-16T01:14:51.773Z,93857.00
2024-01-16T01:15:51.822Z,93857.00
2024-01-16T01:16:51.647Z,93862.00
2024-01-16T01:17:51.862Z,93865.00
2024-01-16T01:18:52.353Z,93865.00
2024-01-16T01:19:51.556Z,93863.00
2024-01-16T01:20:51.663Z,93864.00
2024-01-16T01:21:53.249Z,93862.00
2024-01-16T01:22:51.569Z,93863.00
2024-01-16T01:23:51.610Z,93866.00
2024-01-16T01:24:51.574Z,93864.00
2024-01-16T01:25:51.604Z,93865.00
2024-01-16T01:26:51.855Z,93860.00
2024-01-16T01:27:51.632Z,93863.00
2024-01-16T01:28:52.283Z,93863.00
2024-01-16T01:29:51.724Z,93866.00
2024-01-16T01:30:51.721Z,93865.00
2024-01-16T01:31:51.696Z,93867.00
2024-01-16T01:32:52.382Z,93866.00
2024-01-16T01:33:51.720Z,93865.00
2024-01-16T01:34:52.324Z,93865.00
2024-01-16T01:35:51.753Z,93867.00
2024-01-16T01:36:51.722Z,93867.00
2024-01-16T01:37:51.775Z,93868.00
2024-01-16T01:38:51.831Z,93869.00
2024-01-16T01:39:51.786Z,93870.00
2024-01-16T01:40:52.227Z,93871.00
2024-01-16T01:41:51.892Z,93875.00
2024-01-16T01:42:51.744Z,93875.00
2024-01-16T01:43:51.758Z,93875.00
2024-01-16T01:44:51.866Z,93877.00
2024-01-16T01:45:52.784Z,93877.00
2024-01-16T01:46:51.810Z,93875.00
2024-01-16T01:47:51.919Z,93873.00
2024-01-16T01:48:51.943Z,93872.00
2024-01-16T01:49:51.760Z,93872.00
2024-01-16T01:50:51.936Z,93876.00
2024-01-16T01:51:52.733Z,93881.00
2024-01-16T01:52:51.836Z,93878.00
2024-01-16T01:53:53.850Z,93881.00
2024-01-16T01:54:51.886Z,93883.00
2024-01-16T01:55:52.812Z,93885.00
2024-01-16T01:56:53.838Z,93888.00
2024-01-16T01:57:51.844Z,93889.00
2024-01-16T01:58:51.926Z,93891.00
2024-01-16T01:59:51.890Z,93890.00
2024-01-16T02:00:51.879Z,93888.00
2024-01-16T02:01:51.871Z,93893.00
2024-01-16T02:02:52.020Z,93894.00
2024-01-16T02:03:51.977Z,93894.00
2024-01-16T02:04:51.934Z,93894.00
2024-01-16T02:07:14.262Z,93895.00
2024-01-16T02:07:52.770Z,93894.00
2024-01-16T02:08:52.343Z,93896.00
2024-01-16T02:09:51.955Z,93899.00
2024-01-16T02:10:51.969Z,93897.00
2024-01-16T02:11:52.042Z,93899.00
2024-01-16T02:12:51.950Z,93900.00
2024-01-16T02:13:51.988Z,93903.00
2024-01-16T02:14:51.964Z,93900.00
2024-01-16T02:15:51.953Z,93900.00
2024-01-16T02:16:51.958Z,93902.00
2024-01-16T02:17:52.091Z,93901.00
2024-01-16T02:18:52.006Z,93900.00
2024-01-16T02:19:51.983Z,93901.00
2024-01-16T02:20:52.021Z,93903.00
2024-01-16T02:21:51.984Z,93902.00
2024-01-16T02:22:52.005Z,93902.00
2024-01-16T02:23:52.118Z,93906.00
2024-01-16T02:24:52.031Z,93910.00
2024-01-16T02:25:51.993Z,93910.00
2024-01-16T02:26:52.048Z,93910.00
2024-01-16T02:27:51.988Z,93911.00
2024-01-16T02:28:52.023Z,93912.00
2024-01-16T02:29:52.040Z,93910.00
2024-01-16T02:30:52.021Z,93909.00
2024-01-16T02:31:51.994Z,93910.00
2024-01-16T02:32:52.110Z,93913.00
2024-01-16T02:33:52.107Z,93914.00
2024-01-16T02:34:52.010Z,93916.00
2024-01-16T02:35:52.012Z,93917.00
2024-01-16T02:36:52.004Z,93914.00
2024-01-16T02:37:51.983Z,93915.00
2024-01-16T02:38:52.121Z,93916.00
2024-01-16T02:39:52.019Z,93915.00
2024-01-16T02:40:52.000Z,93914.00
2024-01-16T02:41:52.053Z,93918.00
2024-01-16T02:42:52.002Z,93918.00
2024-01-16T02:43:52.018Z,93922.00
2024-01-16T02:44:52.078Z,93922.00
2024-01-16T02:45:52.032Z,93925.00
2024-01-16T02:46:52.048Z,93925.00
2024-01-16T02:47:52.139Z,93926.00
2024-01-16T02:48:52.031Z,93927.00
2024-01-16T02:49:52.020Z,93929.00
2024-01-16T02:50:52.078Z,93928.00
2024-01-16T02:51:52.255Z,93926.00
2024-01-16T02:52:52.038Z,93927.00
2024-01-16T02:53:52.088Z,93928.00
2024-01-16T02:54:52.054Z,93926.00
2024-01-16T02:55:52.042Z,93928.00
2024-01-16T02:56:52.155Z,93929.00
2024-01-16T02:57:52.049Z,93926.00
2024-01-16T02:58:52.094Z,93930.00
2024-01-16T02:59:52.132Z,93931.00
2024-01-16T03:00:52.114Z,93934.00
2024-01-16T03:01:52.110Z,93938.00
2024-01-16T03:02:52.259Z,93939.00
2024-01-16T03:03:52.208Z,93939.00
2024-01-16T03:04:52.177Z,93943.00
2024-01-16T03:05:52.304Z,93943.00
2024-01-16T03:06:52.307Z,93944.00
2024-01-16T03:07:52.210Z,93946.00
2024-01-16T03:08:52.351Z,93943.00
2024-01-16T03:09:52.290Z,93945.00
2024-01-16T03:10:52.251Z,93945.00
2024-01-16T03:11:52.356Z,93947.00
2024-01-16T03:12:52.285Z,93944.00
2024-01-16T03:13:52.350Z,93944.00
2024-01-16T03:14:52.369Z,93948.00
2024-01-16T03:15:52.373Z,93951.00
2024-01-16T03:16:52.376Z,93950.00
2024-01-16T03:17:52.468Z,93949.00
2024-01-16T03:18:52.507Z,93950.00
2024-01-16T03:19:52.440Z,93950.00
2024-01-16T03:20:52.561Z,93952.00
2024-01-16T03:21:52.497Z,93953.00
2024-01-16T03:22:52.497Z,93948.00
2024-01-16T03:23:52.576Z,93948.00
2024-01-16T03:24:52.546Z,93948.00
2024-01-16T03:25:52.576Z,93949.00
2024-01-16T03:26:52.639Z,93951.00
2024-01-16T03:27:52.624Z,93950.00
2024-01-16T03:28:52.635Z,93951.00
2024-01-16T03:29:52.798Z,93951.00
2024-01-16T03:30:52.701Z,93952.00
2024-01-16T03:31:52.694Z,93950.00
2024-01-16T03:32:52.767Z,93952.00
2024-01-16T03:33:52.853Z,93953.00
2024-01-16T03:34:52.754Z,93951.00
2024-01-16T03:35:52.908Z,93951.00
2024-01-16T03:36:52.833Z,93949.00
2024-01-16T03:37:52.857Z,93948.00
2024-01-16T03:38:52.946Z,93949.00
2024-01-16T03:39:53.117Z,93947.00
2024-01-16T03:40:52.989Z,93945.00
2024-01-16T03:41:53.021Z,93941.00
2024-01-16T03:42:53.023Z,93945.00
2024-01-16T03:43:53.054Z,93942.00
2024-01-16T03:44:53.106Z,93944.00
2024-01-16T03:45:53.092Z,93940.00
2024-01-16T03:46:53.135Z,93941.00
2024-01-16T03:47:53.261Z,93943.00
2024-01-16T03:48:53.281Z,93943.00
2024-01-16T03:49:53.184Z,93945.00
2024-01-16T03:50:53.235Z,93943.00
2024-01-16T03:51:53.263Z,93942.00
2024-01-16T03:52:53.237Z,93942.00
2024-01-16T03:53:53.304Z,93942.00
2024-01-16T03:54:53.274Z,93941.00
2024-01-16T03:55:53.293Z,93943.00
2024-01-16T03:56:53.364Z,93946.00
2024-01-16T03:57:53.315Z,93947.00
2024-01-16T03:58:53.365Z,93948.00
2024-01-16T03:59:53.402Z,93948.00
2024-01-16T04:00:53.422Z,93947.00
2024-01-16T04:01:53.379Z,93948.00
2024-01-16T04:02:53.441Z,93947.00
2024-01-16T04:03:53.437Z,93947.00
2024-01-16T04:04:53.463Z,93949.00
2024-01-16T04:05:53.603Z,93949.00
2024-01-16T04:06:53.515Z,93948.00
2024-01-16T04:07:53.576Z,93951.00
2024-01-16T04:08:53.533Z,93954.00
2024-01-16T04:09:55.362Z,93953.00
2024-01-16T04:10:53.566Z,93955.00
2024-01-16T04:11:53.554Z,93952.00
2024-01-16T04:12:53.573Z,93954.00
2024-01-16T04:13:53.592Z,93952.00
2024-01-16T04:14:53.596Z,93953.00
2024-01-16T04:15:53.614Z,93952.00
2024-01-16T04:16:53.638Z,93952.00
2024-01-16T04:17:53.618Z,93950.00
2024-01-16T04:18:53.782Z,93949.00
2024-01-16T04:19:53.657Z,93950.00
2024-01-16T04:20:53.792Z,93951.00
2024-01-16T04:21:53.703Z,93949.00
2024-01-16T04:22:53.680Z,93952.00
2024-01-16T04:23:53.764Z,93953.00
2024-01-16T04:24:53.722Z,93953.00
2024-01-16T04:25:53.724Z,93955.00
2024-01-16T04:26:53.787Z,93956.00
2024-01-16T04:27:53.759Z,93956.00
2024-01-16T04:28:53.788Z,93959.00
2024-01-16T04:29:53.816Z,93955.00
2024-01-16T04:30:53.869Z,93956.00
2024-01-16T04:31:53.800Z,93955.00
2024-01-16T04:32:53.938Z,93956.00
2024-01-16T04:33:53.915Z,93957.00
2024-01-16T04:34:53.836Z,93959.00
2024-01-16T04:35:53.878Z,93959.00
2024-01-16T04:36:53.866Z,93961.00
2024-01-16T04:37:53.906Z,93961.00
2024-01-16T04:38:53.949Z,93961.00
2024-01-16T04:39:53.934Z,93961.00
2024-01-16T04:40:53.912Z,93965.00
2024-01-16T04:41:53.974Z,93966.00
2024-01-16T04:42:53.933Z,93965.00
2024-01-16T04:43:53.970Z,93965.00
2024-01-16T04:44:54.053Z,93966.00
2024-01-16T04:45:54.008Z,93966.00
2024-01-16T04:46:53.997Z,93970.00
2024-01-16T04:47:54.101Z,93970.00
2024-01-16T04:48:54.190Z,93979.00
2024-01-16T04:49:54.030Z,93982.00
2024-01-16T04:50:54.103Z,93983.00
2024-01-16T04:51:54.050Z,93987.00
2024-01-16T04:52:54.606Z,93986.00
2024-01-16T04:53:54.169Z,93986.00
2024-01-16T04:55:01.488Z,93983.00
2024-01-16T04:56:01.446Z,93986.00
2024-01-16T04:57:01.472Z,93984.00
2024-01-16T04:58:01.516Z,93982.00
2024-01-16T04:59:01.461Z,93981.00
2024-01-16T05:00:01.528Z,93981.00
2024-01-16T05:01:01.503Z,93982.00
2024-01-16T05:02:01.463Z,93983.00
2024-01-16T05:03:01.494Z,93984.00
2024-01-16T05:04:01.585Z,93987.00
2024-01-16T05:05:01.470Z,93991.00
2024-01-16T05:06:01.612Z,93994.00
2024-01-16T05:07:01.476Z,93995.00
2024-01-16T05:08:01.506Z,93995.00
2024-01-16T05:09:01.561Z,93996.00
2024-01-16T05:10:01.497Z,93996.00
2024-01-16T05:11:01.488Z,93997.00
2024-01-16T05:12:01.489Z,93997.00
2024-01-16T05:13:01.507Z,93998.00
2024-01-16T05:14:01.511Z,93997.00
2024-01-16T05:15:01.506Z,93993.00
2024-01-16T05:16:01.520Z,93995.00
2024-01-16T05:17:01.496Z,93996.00
2024-01-16T05:18:01.679Z,93990.00
2024-01-16T05:19:01.593Z,93992.00
2024-01-16T05:20:01.501Z,93991.00
2024-01-16T05:21:01.577Z,93991.00
2024-01-16T05:22:01.509Z,93995.00
2024-01-16T05:23:01.494Z,93995.00
2024-01-16T05:24:01.525Z,93994.00
2024-01-16T05:25:01.502Z,93996.00
2024-01-16T05:26:01.503Z,93996.00
2024-01-16T05:27:01.502Z,93998.00
2024-01-16T05:28:01.494Z,94000.00
2024-01-16T05:29:01.509Z,94005.00
2024-01-16T05:30:01.584Z,94001.00
2024-01-16T05:31:01.666Z,94002.00
2024-01-16T05:32:01.537Z,94004.00
2024-01-16T05:33:01.583Z,94004.00
2024-01-16T05:34:01.630Z,94003.00
2024-01-16T05:35:01.525Z,94003.00
2024-01-16T05:36:01.605Z,94001.00
2024-01-16T05:37:01.515Z,94001.00
2024-01-16T05:38:01.518Z,94002.00
2024-01-16T05:39:01.542Z,94000.00
2024-01-16T05:40:01.525Z,93999.00
2024-01-16T05:41:01.527Z,93996.00
2024-01-16T05:42:01.573Z,94002.00
2024-01-16T05:43:01.526Z,93998.00
2024-01-16T05:44:01.531Z,94004.00
2024-01-16T05:45:01.562Z,94002.00
2024-01-16T05:46:01.524Z,94000.00
2024-01-16T05:47:01.546Z,94002.00
2024-01-16T05:48:01.603Z,94001.00
2024-01-16T05:49:01.712Z,94003.00
2024-01-16T05:50:01.606Z,94002.00
2024-01-16T05:51:01.604Z,94005.00
2024-01-16T05:52:01.579Z,94010.00
2024-01-16T05:53:01.566Z,94012.00
2024-01-16T05:54:01.533Z,94014.00
2024-01-16T05:55:01.553Z,94011.00
2024-01-16T05:56:01.572Z,94014.00
2024-01-16T05:57:01.538Z,94016.00
2024-01-16T05:58:01.543Z,94015.00
2024-01-16T05:59:01.553Z,94014.00
2024-01-16T06:00:01.570Z,94016.00
2024-01-16T06:01:01.645Z,94014.00
2024-01-16T06:02:01.547Z,94015.00
2024-01-16T06:03:01.555Z,94018.00
2024-01-16T06:04:01.574Z,94019.00
2024-01-16T06:05:01.566Z,94018.00
2024-01-16T06:06:01.887Z,94017.00
2024-01-16T06:07:01.632Z,94018.00
2024-01-16T06:08:01.598Z,94021.00
2024-01-16T06:09:01.603Z,94020.00
2024-01-16T06:10:01.602Z,94018.00
2024-01-16T06:11:01.595Z,94020.00
2024-01-16T06:12:01.641Z,94017.00
2024-01-16T06:13:01.597Z,94018.00
2024-01-16T06:14:01.678Z,94017.00
2024-01-16T06:15:01.705Z,94016.00
2024-01-16T06:16:01.621Z,94015.00
2024-01-16T06:17:01.602Z,94014.00
2024-01-16T06:18:01.840Z,94013.00
2024-01-16T06:19:01.717Z,94015.00
2024-01-16T06:20:01.628Z,94016.00
2024-01-16T06:21:01.776Z,94017.00
2024-01-16T06:22:01.662Z,94016.00
2024-01-16T06:23:01.599Z,94018.00
2024-01-16T06:24:01.633Z,94016.00
2024-01-16T06:25:01.636Z,94017.00
2024-01-16T06:26:01.805Z,94018.00
2024-01-16T06:27:01.667Z,94018.00
2024-01-16T06:28:04.215Z,94019.00
2024-01-16T06:29:01.660Z,94017.00
2024-01-16T06:30:01.681Z,94020.00
2024-01-16T06:31:01.741Z,94020.00
2024-01-16T06:32:01.627Z,94022.00
2024-01-16T06:33:01.720Z,94019.00
2024-01-16T06:34:02.271Z,94021.00
2024-01-16T06:35:01.723Z,94022.00
2024-01-16T06:36:01.764Z,94023.00
2024-01-16T06:37:01.636Z,94022.00
2024-01-16T06:38:01.670Z,94024.00
2024-01-16T06:39:01.656Z,94023.00
2024-01-16T06:40:01.626Z,94020.00
2024-01-16T06:41:01.898Z,94019.00
2024-01-16T06:42:01.632Z,94023.00
2024-01-16T06:43:01.678Z,94022.00
2024-01-16T06:44:01.686Z,94023.00
2024-01-16T06:45:01.691Z,94023.00
2024-01-16T06:46:02.168Z,94024.00
2024-01-16T06:47:01.727Z,94020.00
2024-01-16T06:48:01.766Z,94022.00
2024-01-16T06:49:02.272Z,94022.00
2024-01-16T06:50:01.680Z,94022.00
2024-01-16T06:51:02.658Z,94025.00
2024-01-16T06:52:01.641Z,94024.00
2024-01-16T06:53:01.668Z,94024.00
2024-01-16T06:54:01.719Z,94030.00
2024-01-16T06:55:01.641Z,94027.00
2024-01-16T06:56:01.657Z,94027.00
2024-01-16T06:57:01.723Z,94027.00
2024-01-16T06:58:01.671Z,94028.00
2024-01-16T06:59:01.668Z,94028.00
2024-01-16T07:00:01.825Z,94029.00
2024-01-16T07:01:01.696Z,94029.00
2024-01-16T07:02:01.673Z,94029.00
2024-01-16T07:03:01.661Z,94033.00
2024-01-16T07:04:01.735Z,94031.00
2024-01-16T07:05:01.689Z,94033.00
2024-01-16T07:06:01.856Z,94033.00
2024-01-16T07:07:01.684Z,94039.00
2024-01-16T07:08:01.719Z,94040.00
2024-01-16T07:09:01.681Z,94043.00
2024-01-16T07:10:02.113Z,94045.00
2024-01-16T07:11:01.688Z,94048.00
2024-01-16T07:12:02.685Z,94046.00
2024-01-16T07:13:01.718Z,94044.00
2024-01-16T07:14:01.733Z,94043.00
2024-01-16T07:15:01.804Z,94047.00
2024-01-16T07:16:01.736Z,94047.00
2024-01-16T07:17:01.688Z,94049.00
2024-01-16T07:18:01.791Z,94049.00
2024-01-16T07:19:01.792Z,94052.00
2024-01-16T07:20:02.101Z,94050.00
2024-01-16T07:21:01.744Z,94052.00
2024-01-16T07:22:01.693Z,94050.00
2024-01-16T07:23:01.686Z,94050.00
2024-01-16T07:24:01.716Z,94052.00
2024-01-16T07:25:01.727Z,94051.00
2024-01-16T07:26:03.588Z,94050.00
2024-01-16T07:27:01.713Z,94053.00
2024-01-16T07:28:01.734Z,94054.00
2024-01-16T07:29:01.739Z,94055.00
2024-01-16T07:30:01.728Z,94059.00
2024-01-16T07:31:01.741Z,94054.00
2024-01-16T07:32:01.749Z,94057.00
2024-01-16T07:33:01.788Z,94056.00
2024-01-16T07:34:01.794Z,94058.00
2024-01-16T07:35:01.830Z,94059.00
2024-01-16T07:36:01.844Z,94060.00
2024-01-16T07:37:01.709Z,94064.00
2024-01-16T07:38:04.556Z,94066.00
2024-01-16T07:39:01.845Z,94071.00
2024-01-16T07:40:01.803Z,94069.00
2024-01-16T07:41:01.720Z,94070.00
2024-01-16T07:42:01.926Z,94072.00
2024-01-16T07:43:01.753Z,94073.00
2024-01-16T07:44:01.767Z,94073.00
2024-01-16T07:45:01.796Z,94073.00
2024-01-16T07:46:01.781Z,94079.00
2024-01-16T07:47:01.752Z,94079.00
2024-01-16T07:48:01.794Z,94075.00
2024-01-16T07:49:01.898Z,94077.00
2024-01-16T07:50:03.814Z,94072.00
2024-01-16T07:51:01.823Z,94079.00
2024-01-16T07:52:01.751Z,94077.00
2024-01-16T07:53:01.767Z,94075.00
2024-01-16T07:54:01.920Z,94079.00
2024-01-16T07:55:01.739Z,94076.00
2024-01-16T07:56:01.823Z,94074.00
2024-01-16T07:57:01.842Z,94076.00
2024-01-16T07:58:01.951Z,94075.00
2024-01-16T07:59:01.756Z,94077.00
2024-01-16T08:00:01.968Z,94073.00
2024-01-16T08:01:01.783Z,94075.00
2024-01-16T08:02:01.802Z,94078.00
2024-01-16T08:03:01.812Z,94080.00
2024-01-16T08:04:02.054Z,94079.00
2024-01-16T08:05:01.775Z,94081.00
2024-01-16T08:06:01.992Z,94077.00
2024-01-16T08:07:01.769Z,94077.00
2024-01-16T08:08:01.766Z,94073.00
2024-01-16T08:09:01.959Z,94070.00
2024-01-16T08:10:01.891Z,94072.00
2024-01-16T08:11:01.812Z,94072.00
2024-01-16T08:12:01.840Z,94069.00
2024-01-16T08:13:01.822Z,94071.00
2024-01-16T08:14:01.876Z,94071.00
2024-01-16T08:15:02.199Z,94072.00
2024-01-16T08:16:02.613Z,94072.00
2024-01-16T08:17:01.797Z,94071.00
2024-01-16T08:18:01.987Z,94066.00
2024-01-16T08:19:01.974Z,94065.00
2024-01-16T08:20:01.826Z,94061.00
2024-01-16T08:21:01.860Z,94059.00
2024-01-16T08:22:01.819Z,94055.00
2024-01-16T08:23:01.823Z,94054.00
2024-01-16T08:24:01.894Z,94053.00
2024-01-16T08:25:01.871Z,94053.00
2024-01-16T08:26:01.841Z,94057.00
2024-01-16T08:27:01.836Z,94057.00
2024-01-16T08:28:01.847Z,94057.00
2024-01-16T08:29:01.906Z,94058.00
2024-01-16T08:30:01.959Z,94062.00
2024-01-16T08:31:01.930Z,94061.00
2024-01-16T08:32:01.863Z,94057.00
2024-01-16T08:33:02.009Z,94054.00
2024-01-16T08:34:02.063Z,94054.00
2024-01-16T08:35:01.882Z,94051.00
2024-01-16T08:36:02.696Z,94051.00
2024-01-16T08:37:01.855Z,94054.00
2024-01-16T08:38:01.914Z,94052.00
2024-01-16T08:39:01.935Z,94049.00
2024-01-16T08:40:01.866Z,94052.00
2024-01-16T08:41:01.905Z,94051.00
2024-01-16T08:42:01.904Z,94051.00
2024-01-16T08:43:01.889Z,94049.00
2024-01-16T08:44:01.898Z,94049.00
2024-01-16T08:45:02.082Z,94048.00
2024-01-16T08:46:01.875Z,94048.00
2024-01-16T08:47:01.886Z,94049.00
2024-01-16T08:48:02.099Z,94050.00
2024-01-16T08:49:01.965Z,94048.00
2024-01-16T08:50:01.887Z,94049.00
2024-01-16T08:51:02.678Z,94047.00
2024-01-16T08:52:03.661Z,94052.00
2024-01-16T08:53:01.914Z,94049.00
2024-01-16T08:54:01.993Z,94050.00
2024-01-16T08:55:01.923Z,94050.00
2024-01-16T08:56:01.937Z,94050.00
2024-01-16T08:57:01.917Z,94050.00
2024-01-16T08:58:01.911Z,94052.00
2024-01-16T08:59:01.915Z,94051.00
2024-01-16T09:00:02.239Z,94048.00
2024-01-16T09:01:01.945Z,94051.00
2024-01-16T09:02:01.895Z,94050.00
2024-01-16T09:03:04.938Z,94050.00
2024-01-16T09:04:01.953Z,94052.00
2024-01-16T09:05:02.325Z,94049.00
2024-01-16T09:06:02.418Z,94048.00
2024-01-16T09:07:02.260Z,94051.00
2024-01-16T09:08:01.915Z,94049.00
2024-01-16T09:09:02.007Z,94050.00
2024-01-16T09:10:01.938Z,94050.00
2024-01-16T09:11:01.941Z,94047.00
2024-01-16T09:12:01.925Z,94041.00
2024-01-16T09:13:01.928Z,94042.00
2024-01-16T09:14:04.610Z,94043.00
2024-01-16T09:15:02.035Z,94042.00
2024-01-16T09:16:01.949Z,94038.00
2024-01-16T09:17:01.932Z,94038.00
2024-01-16T09:18:02.116Z,94040.00
2024-01-16T09:19:02.063Z,94040.00
2024-01-16T09:20:01.935Z,94045.00
2024-01-16T09:21:02.047Z,94043.00
2024-01-16T09:22:01.928Z,94043.00
2024-01-16T09:23:01.960Z,94042.00
2024-01-16T09:24:02.030Z,94042.00
2024-01-16T09:25:01.968Z,94042.00
2024-01-16T09:26:01.955Z,94043.00
2024-01-16T09:27:01.976Z,94041.00
2024-01-16T09:28:01.987Z,94038.00
2024-01-16T09:29:01.943Z,94038.00
2024-01-16T09:30:02.285Z,94037.00
2024-01-16T09:31:02.166Z,94038.00
2024-01-16T09:32:02.022Z,94037.00
2024-01-16T09:33:02.132Z,94035.00
2024-01-16T09:34:04.103Z,94039.00
2024-01-16T09:35:02.270Z,94038.00
2024-01-16T09:36:02.870Z,94034.00
2024-01-16T09:37:02.016Z,94031.00
2024-01-16T09:38:01.979Z,94031.00
2024-01-16T09:39:02.094Z,94027.00
2024-01-16T09:40:02.222Z,94028.00
2024-01-16T09:41:02.026Z,94027.00
2024-01-16T09:42:02.031Z,94030.00
2024-01-16T09:43:01.975Z,94025.00
2024-01-16T09:44:01.981Z,94027.00
2024-01-16T09:45:02.089Z,94029.00
2024-01-16T09:46:03.416Z,94025.00
2024-01-16T09:47:01.964Z,94026.00
2024-01-16T09:48:02.319Z,94023.00
2024-01-16T09:49:02.012Z,94024.00
2024-01-16T09:50:02.179Z,94021.00
2024-01-16T09:51:02.054Z,94020.00
2024-01-16T09:52:01.980Z,94015.00
2024-01-16T09:53:02.051Z,94011.00
2024-01-16T09:54:02.057Z,94006.00
2024-01-16T09:55:02.181Z,94005.00
2024-01-16T09:56:02.002Z,94006.00
2024-01-16T09:57:02.129Z,94007.00
2024-01-16T09:58:02.011Z,94009.00
2024-01-16T09:59:01.995Z,94008.00
2024-01-16T10:00:02.103Z,94005.00
2024-01-16T10:01:02.062Z,94000.00
2024-01-16T10:02:02.075Z,93999.00
2024-01-16T10:03:02.172Z,93997.00
2024-01-16T10:04:02.057Z,93999.00
2024-01-16T10:05:02.019Z,93998.00
2024-01-16T10:06:02.209Z,93997.00
2024-01-16T10:07:02.069Z,93999.00
2024-01-16T10:08:02.030Z,93992.00
2024-01-16T10:09:02.147Z,93994.00
2024-01-16T10:10:02.025Z,93992.00
2024-01-16T10:11:02.002Z,93992.00
2024-01-16T10:12:02.117Z,93993.00
2024-01-16T10:13:02.065Z,93994.00
2024-01-16T10:14:02.025Z,93989.00
2024-01-16T10:15:02.113Z,93986.00
2024-01-16T10:16:02.665Z,93983.00
2024-01-16T10:17:02.111Z,93985.00
2024-01-16T10:18:02.399Z,93982.00
2024-01-16T10:19:02.380Z,93981.00
2024-01-16T10:20:02.455Z,93978.00
2024-01-16T10:21:02.517Z,93978.00
2024-01-16T10:22:02.458Z,93975.00
2024-01-16T10:23:02.533Z,93972.00
2024-01-16T10:24:02.678Z,93972.00
2024-01-16T10:25:02.676Z,93973.00
2024-01-16T10:26:02.764Z,93972.00
2024-01-16T10:27:02.933Z,93975.00
2024-01-16T10:28:02.916Z,93973.00
2024-01-16T10:29:02.964Z,93970.00
2024-01-16T10:30:03.095Z,93968.00
2024-01-16T10:31:03.299Z,93970.00
2024-01-16T10:32:03.182Z,93966.00
2024-01-16T10:33:03.320Z,93968.00
2024-01-16T10:34:03.327Z,93965.00
2024-01-16T10:35:03.421Z,93960.00
2024-01-16T10:36:03.329Z,93961.00
2024-01-16T10:37:03.380Z,93960.00
2024-01-16T10:38:03.453Z,93962.00
2024-01-16T10:39:03.487Z,93961.00
2024-01-16T10:40:03.697Z,93963.00
2024-01-16T10:41:03.600Z,93959.00
2024-01-16T10:42:03.662Z,93961.00
2024-01-16T10:43:03.703Z,93958.00
2024-01-16T10:44:03.783Z,93955.00
2024-01-16T10:45:03.847Z,93955.00
2024-01-16T10:46:03.909Z,93956.00
2024-01-16T10:47:03.993Z,93957.00
2024-01-16T10:48:04.565Z,93956.00
2024-01-16T10:49:04.386Z,93956.00
2024-01-16T10:50:04.233Z,93951.00
2024-01-16T10:51:04.260Z,93950.00
2024-01-16T10:52:04.334Z,93946.00
2024-01-16T10:53:04.391Z,93947.00
2024-01-16T10:54:04.641Z,93946.00
2024-01-16T10:55:04.494Z,93947.00
2024-01-16T10:56:04.575Z,93945.00
2024-01-16T10:57:04.619Z,93942.00
2024-01-16T10:58:04.735Z,93943.00
2024-01-16T10:59:04.711Z,93941.00
2024-01-16T11:00:05.199Z,93940.00
2024-01-16T11:01:04.788Z,93937.00
2024-01-16T11:02:04.804Z,93934.00
2024-01-16T11:03:04.827Z,93934.00
2024-01-16T11:04:04.900Z,93933.00
2024-01-16T11:05:05.260Z,93933.00
2024-01-16T11:06:05.219Z,93930.00
2024-01-16T11:07:05.101Z,93928.00
2024-01-16T11:08:05.187Z,93928.00
2024-01-16T11:09:06.953Z,93923.00
2024-01-16T11:10:05.299Z,93922.00
2024-01-16T11:11:05.347Z,93920.00
2024-01-16T11:12:05.364Z,93918.00
2024-01-16T11:13:05.421Z,93919.00
2024-01-16T11:14:05.505Z,93918.00
2024-01-16T11:15:05.578Z,93917.00
2024-01-16T11:16:05.617Z,93912.00
2024-01-16T11:17:05.621Z,93912.00
2024-01-16T11:18:05.726Z,93908.00
2024-01-16T11:19:24.567Z,93908.00
2024-01-16T11:20:20.965Z,93910.00
2024-01-16T11:21:09.152Z,93906.00
2024-01-16T11:22:06.803Z,93904.00
2024-01-16T11:23:05.773Z,93901.00
2024-01-16T11:24:05.727Z,93900.00
2024-01-16T11:25:05.711Z,93897.00
2024-01-16T11:26:05.742Z,93896.00
2024-01-16T11:27:05.840Z,93894.00
2024-01-16T11:28:05.728Z,93890.00
2024-01-16T11:29:05.752Z,93891.00
2024-01-16T11:30:05.988Z,93889.00
2024-01-16T11:31:05.773Z,93889.00
2024-01-16T11:32:18.020Z,93889.00
2024-01-16T11:33:06.881Z,93887.00
2024-01-16T11:34:06.041Z,93884.00
2024-01-16T11:35:05.826Z,93883.00
2024-01-16T11:36:05.808Z,93880.00
2024-01-16T11:37:05.734Z,93877.00
2024-01-16T11:38:05.762Z,93876.00
2024-01-16T11:39:05.748Z,93872.00
2024-01-16T11:40:05.810Z,93868.00
2024-01-16T11:41:05.760Z,93869.00
2024-01-16T11:42:05.796Z,93863.00
2024-01-16T11:43:05.764Z,93861.00
2024-01-16T11:44:05.791Z,93860.00
2024-01-16T11:45:05.967Z,93856.00
2024-01-16T11:46:05.944Z,93852.00